createdAt,value
2022-08-17T00:02:26.501Z,16.95
2022-08-17T00:07:28.575Z,14.88
2022-08-17T00:12:42.055Z,16.17
2022-08-17T00:17:51.720Z,17.40
2022-08-17T00:23:07.096Z,15.20
2022-08-17T00:28:08.668Z,19.67
2022-08-17T00:33:17.021Z,14.30
2022-08-17T00:38:18.730Z,15.40
2022-08-17T00:43:32.094Z,15.25
2022-08-17T00:48:33.623Z,16.55
2022-08-17T00:53:37.075Z,19.15
2022-08-17T00:58:38.610Z,16.45
2022-08-17T01:03:40.144Z,19.30
2022-08-17T01:08:41.668Z,17.08
2022-08-17T01:13:43.361Z,16.48
2022-08-17T01:18:45.947Z,14.55
2022-08-17T01:23:47.454Z,14.05
2022-08-17T01:28:54.767Z,15.85
2022-08-17T01:33:59.451Z,14.88
2022-08-17T01:39:05.271Z,15.95
2022-08-17T01:44:07.400Z,15.73
2022-08-17T01:49:10.721Z,17.55
2022-08-17T01:54:13.772Z,21.48
2022-08-17T01:59:16.436Z,18.10
2022-08-17T02:04:17.999Z,20.20
2022-08-17T02:09:20.281Z,19.15
2022-08-17T02:14:25.012Z,19.48
2022-08-17T02:19:26.537Z,21.88
2022-08-17T02:24:59.608Z,20.58
2022-08-17T02:29:52.551Z,21.50
2022-08-17T02:34:54.082Z,20.70
2022-08-17T02:39:58.802Z,25.45
2022-08-17T02:45:01.371Z,29.67
2022-08-17T02:50:03.641Z,27.70
2022-08-17T02:55:19.267Z,24.92
2022-08-17T03:00:23.988Z,23.67
2022-08-17T03:05:26.614Z,21.83
2022-08-17T03:10:29.625Z,22.42
2022-08-17T03:15:32.300Z,23.38
2022-08-17T03:20:34.036Z,22.48
2022-08-17T03:25:42.692Z,23.55
2022-08-17T03:30:45.610Z,25.35
2022-08-17T03:35:47.294Z,26.00
2022-08-17T03:40:57.765Z,25.88
2022-08-17T03:46:35.227Z,23.15
2022-08-17T03:51:55.871Z,20.95
2022-08-17T03:57:06.590Z,24.33
2022-08-17T04:02:11.055Z,25.85
2022-08-17T04:07:12.662Z,23.25
2022-08-17T04:12:15.826Z,28.38
2022-08-17T04:17:17.344Z,25.52
2022-08-17T04:22:32.945Z,25.98
2022-08-17T04:27:35.909Z,25.90
2022-08-17T04:33:06.243Z,24.77
2022-08-17T04:38:10.460Z,29.67
2022-08-17T04:43:14.250Z,25.58
2022-08-17T04:48:15.776Z,23.70
2022-08-17T04:53:17.924Z,27.23
2022-08-17T04:58:19.643Z,27.90
2022-08-17T05:03:21.171Z,25.08
2022-08-17T05:08:22.696Z,28.65
2022-08-17T05:13:25.402Z,24.77
2022-08-17T05:18:27.635Z,25.38
2022-08-17T05:23:41.902Z,24.38
2022-08-17T05:28:44.768Z,22.38
2022-08-17T05:33:47.676Z,22.80
2022-08-17T05:38:49.192Z,25.88
2022-08-17T05:43:54.359Z,21.65
2022-08-17T05:49:00.899Z,21.25
2022-08-17T05:54:39.805Z,22.48
2022-08-17T05:59:50.364Z,18.38
2022-08-17T06:05:25.298Z,22.88
2022-08-17T06:10:39.930Z,21.55
2022-08-17T06:16:02.195Z,20.88
2022-08-17T06:21:04.678Z,21.83
2022-08-17T06:26:11.563Z,20.48
2022-08-17T06:31:34.688Z,18.40
2022-08-17T06:37:09.249Z,21.77
2022-08-17T06:42:54.007Z,19.00
2022-08-17T06:48:02.651Z,17.00
2022-08-17T06:53:40.055Z,17.10
2022-08-17T06:58:43.325Z,20.15
2022-08-17T07:03:54.340Z,18.20
2022-08-17T07:09:08.250Z,19.15
2022-08-17T07:14:20.212Z,18.60
2022-08-17T07:19:23.665Z,17.25
2022-08-17T07:24:30.802Z,14.38
2022-08-17T07:29:33.735Z,18.02
2022-08-17T07:35:02.973Z,15.35
2022-08-17T07:40:27.078Z,17.15
2022-08-17T07:45:47.046Z,14.90
2022-08-17T07:50:50.836Z,16.25
2022-08-17T07:55:53.238Z,12.57
2022-08-17T08:01:09.366Z,14.93
2022-08-17T08:06:23.577Z,14.85
2022-08-17T08:11:33.542Z,14.90
2022-08-17T08:16:35.228Z,13.55
2022-08-17T08:21:49.239Z,12.40
2022-08-17T08:26:56.836Z,12.05
2022-08-17T08:32:07.618Z,11.52
2022-08-17T08:37:47.603Z,11.57
2022-08-17T08:43:02.293Z,10.00
2022-08-17T08:48:46.276Z,10.43
2022-08-17T08:53:49.359Z,9.73
2022-08-17T08:59:07.643Z,10.77
2022-08-17T09:05:10.659Z,9.75
2022-08-17T09:10:09.217Z,10.18
2022-08-17T09:15:29.275Z,10.82
2022-08-17T09:20:35.814Z,11.35
2022-08-17T09:25:49.878Z,9.93
2022-08-17T09:30:55.297Z,8.55
2022-08-17T09:36:02.779Z,10.15
2022-08-17T09:41:18.211Z,11.93
2022-08-17T09:46:24.804Z,10.13
2022-08-17T09:51:40.125Z,9.85
2022-08-17T09:57:29.906Z,10.13
2022-08-17T10:02:53.499Z,10.38
2022-08-17T10:08:02.441Z,10.50
2022-08-17T10:13:16.323Z,8.32
2022-08-17T10:18:42.242Z,9.13
2022-08-17T10:24:02.331Z,8.80
2022-08-17T10:29:12.414Z,11.13
2022-08-17T10:34:28.714Z,10.32
2022-08-17T10:39:52.483Z,8.98
2022-08-17T10:45:26.792Z,8.82
2022-08-17T10:56:13.723Z,9.43
2022-08-17T11:01:16.047Z,9.05
2022-08-17T11:06:21.491Z,8.23
2022-08-17T11:11:47.268Z,8.38
2022-08-17T11:17:11.340Z,8.68
2022-08-17T11:22:33.372Z,8.27
2022-08-17T11:27:35.471Z,8.48
2022-08-17T11:32:47.096Z,8.60
2022-08-17T11:38:17.390Z,8.68
2022-08-17T11:43:38.351Z,8.23
2022-08-17T11:49:30.526Z,9.45
2022-08-17T11:54:47.571Z,9.75
2022-08-17T11:59:51.763Z,10.52
2022-08-17T12:05:12.126Z,10.88
2022-08-17T12:10:17.145Z,11.05
2022-08-17T12:15:21.292Z,9.40
2022-08-17T12:20:33.557Z,10.32
2022-08-17T12:25:47.693Z,9.98
2022-08-17T12:30:50.052Z,9.63
2022-08-17T12:36:03.086Z,9.88
2022-08-17T12:41:24.887Z,9.52
2022-08-17T12:46:26.482Z,9.25
2022-08-17T12:51:29.208Z,8.45
2022-08-17T12:56:31.327Z,9.38
2022-08-17T13:01:34.956Z,9.18
2022-08-17T13:06:37.305Z,8.88
2022-08-17T13:11:56.244Z,8.05
2022-08-17T13:16:59.837Z,7.63
2022-08-17T13:22:01.575Z,7.60
2022-08-17T13:27:10.205Z,7.47
2022-08-17T13:32:13.736Z,8.48
2022-08-17T13:37:28.992Z,7.35
2022-08-17T13:42:52.058Z,7.68
2022-08-17T13:48:25.440Z,7.22
2022-08-17T13:53:32.773Z,7.43
2022-08-17T13:58:37.133Z,7.45
2022-08-17T14:03:38.657Z,7.97
2022-08-17T14:08:43.657Z,7.55
2022-08-17T14:13:46.282Z,7.05
2022-08-17T14:18:56.023Z,6.88
2022-08-17T14:23:58.863Z,6.28
2022-08-17T14:29:00.587Z,6.90
2022-08-17T14:34:02.121Z,7.18
2022-08-17T14:39:04.258Z,6.75
2022-08-17T14:44:05.933Z,6.90
2022-08-17T14:49:10.972Z,6.55
2022-08-17T14:54:33.524Z,6.28
2022-08-17T14:59:35.590Z,6.45
2022-08-17T15:04:40.797Z,7.38
2022-08-17T15:09:45.559Z,7.13
2022-08-17T15:14:47.090Z,7.43
2022-08-17T15:19:48.628Z,7.63
2022-08-17T15:24:50.148Z,6.22
2022-08-17T15:29:51.718Z,7.30
2022-08-17T15:34:57.053Z,6.07
2022-08-17T15:40:00.690Z,6.60
2022-08-17T15:45:10.754Z,5.53
2022-08-17T15:50:12.296Z,5.93
2022-08-17T15:55:14.724Z,5.47
2022-08-17T16:00:17.280Z,5.47
2022-08-17T16:05:21.652Z,4.55
2022-08-17T16:10:35.658Z,4.78
2022-08-17T16:15:38.065Z,5.03
2022-08-17T16:20:39.586Z,4.80
2022-08-17T16:25:52.884Z,4.75
2022-08-17T16:30:55.719Z,4.63
2022-08-17T16:35:57.234Z,4.38
2022-08-17T16:40:58.740Z,3.85
2022-08-17T16:46:00.853Z,3.67
2022-08-17T16:51:04.505Z,3.95
2022-08-17T16:56:07.186Z,3.78
2022-08-17T17:01:08.752Z,4.13
2022-08-17T17:06:27.767Z,4.18
2022-08-17T17:11:34.094Z,4.50
2022-08-17T17:16:58.659Z,4.45
2022-08-17T17:22:03.790Z,3.80
2022-08-17T17:27:26.506Z,3.72
2022-08-17T17:32:37.984Z,3.88
2022-08-17T17:37:39.511Z,4.35
2022-08-17T17:42:41.271Z,4.22
2022-08-17T17:52:56.063Z,4.88
2022-08-17T17:58:13.369Z,5.75
2022-08-17T18:03:22.334Z,4.72
2022-08-17T18:08:33.961Z,4.90
2022-08-17T18:14:14.802Z,4.55
2022-08-17T18:19:20.341Z,4.38
2022-08-17T18:24:32.970Z,4.55
2022-08-17T18:29:39.905Z,4.63
2022-08-17T18:34:47.922Z,4.53
2022-08-17T18:39:50.208Z,4.78
2022-08-17T18:44:54.967Z,4.70
2022-08-17T18:49:58.757Z,4.88
2022-08-17T18:55:00.113Z,5.90
2022-08-17T19:00:02.043Z,5.57
2022-08-17T19:05:32.723Z,5.93
2022-08-17T19:10:46.304Z,6.38
2022-08-17T19:16:18.022Z,5.95
2022-08-17T19:21:30.769Z,6.35
2022-08-17T19:26:54.451Z,6.90
2022-08-17T19:31:58.438Z,5.95
2022-08-17T19:37:11.394Z,5.85
2022-08-17T19:42:31.056Z,7.35
2022-08-17T19:48:03.335Z,6.95
2022-08-17T19:53:13.524Z,6.38
2022-08-17T19:58:26.824Z,7.25
2022-08-17T20:03:35.256Z,8.32
2022-08-17T20:08:39.165Z,10.57
2022-08-17T20:13:49.684Z,10.32
2022-08-17T20:19:04.830Z,9.80
2022-08-17T20:24:35.843Z,11.07
2022-08-17T20:29:52.177Z,6.05
2022-08-17T20:35:16.769Z,6.35
2022-08-17T20:40:21.340Z,3.42
2022-08-17T20:45:25.041Z,7.20
2022-08-17T20:50:38.533Z,5.68
2022-08-17T20:55:52.516Z,3.30
2022-08-17T21:00:57.378Z,5.30
2022-08-17T21:06:16.848Z,11.13
2022-08-17T21:11:56.778Z,7.07
2022-08-17T21:17:01.320Z,4.75
2022-08-17T21:22:53.827Z,5.38
2022-08-17T21:28:34.320Z,9.18
2022-08-17T21:33:37.854Z,4.82
2022-08-17T21:38:41.742Z,9.45
2022-08-17T21:43:46.466Z,3.97
2022-08-17T21:48:50.465Z,5.03
2022-08-17T21:54:00.499Z,7.65
2022-08-17T21:59:27.160Z,6.78
2022-08-17T22:04:29.020Z,7.18
2022-08-17T22:09:49.039Z,6.95
2022-08-17T22:14:57.932Z,7.15
2022-08-17T22:20:18.458Z,6.32
2022-08-17T22:25:20.635Z,6.18
2022-08-17T22:30:26.289Z,5.88
2022-08-17T22:35:33.300Z,4.78
2022-08-17T22:40:34.810Z,4.90
2022-08-17T22:45:40.386Z,5.50
2022-08-17T22:50:41.924Z,4.82
2022-08-17T22:56:14.025Z,5.65
2022-08-17T23:01:32.581Z,6.38
2022-08-17T23:06:35.072Z,6.43
2022-08-17T23:11:48.703Z,5.32
2022-08-17T23:16:51.230Z,5.25
2022-08-17T23:21:55.223Z,5.43
2022-08-17T23:26:59.515Z,3.90
2022-08-17T23:32:01.429Z,4.97
2022-08-17T23:42:08.090Z,6.00
2022-08-17T23:47:10.362Z,5.15
2022-08-17T23:52:15.011Z,5.43
2022-08-17T23:57:19.602Z,5.72
